Fort Wayne, IN (46802)

11:35 PM EDT on July 29, 2016 (GMT -0400)
Oakdale | | Change Station

Elev 794 ft 41.05 °N, 85.14 °W | Updated 35 seconds ago

Scattered Clouds
Scattered Clouds
68.7 °F
Feels Like 68.7 °F
N
0.0
Wind Variable Wind from NNW

Today
High -- | Low -- °F
--% Chance of Precip.
Yesterday
High -- | Low -- °F
Precip. -- in
Pressure 29.94 in
Visibility 8.0 miles
Clouds Few 5500 ft
Scattered Clouds 16000 ft
Dew Point 68 °F
Humidity 98%
Rainfall 0.25 in
Snow Depth Not available.
6:34 AM 8:59 PM
Waning Crescent, 16% visible
METAR KFWA 300254Z 08005KT 8SM FEW055 SCT160 21/20 A2995 RMK AO2 SLP136 OCNL LTGIC DSNT N 60001 T02060200 53002 $
Pressure 29.94 in
Visibility 8.0 miles
Clouds Few 5500 ft
Scattered Clouds 16000 ft
Dew Point 68 °F
Humidity 98%
Rainfall 0.25 in
Snow Depth Not available.
6:34 AM 8:59 PM
Waning Crescent, 16% visible
METAR KFWA 300254Z 08005KT 8SM FEW055 SCT160 21/20 A2995 RMK AO2 SLP136 OCNL LTGIC DSNT N 60001 T02060200 53002 $

10-Day Weather Forecast

Almanac

Astronomy

Jul. 29, 2016 Rise Set
Actual Time
Civil Twilight
Nautical Twilight
Astronomical Twilight
Moon
Length of Visible Light
Length of Day
Tomorrow will be .
, % of the Moon is Illuminated

Today's Extremes

State Highs State Lows

Community

WunderPhotos

Upload Photos

1,928,500 photos uploaded!

WunderBlog® & News

Nearby

Air Quality

  Air Quality AQ Index Pollutant
Not available.

Snow Depth

Station Depth Elevation

Earthquake Activity

City Distance Mag. Time & Date
Minimum magnitude displayed is 2.5.

Coastal Water Temperatures

Place Temperature

Stations

Nearby Weather Stations

Station Location Temp. Windchill Dew Point Humidity Wind Precip. Elev Updated Type
                   

Watches & Warnings

There are currently no watches in effect.